Time;durP1;ratioP1;P1;durP2;ratioP2;P2;SDS_P1;SDS_P2;PMS_P1;PMS_P2;Temp;Humidity;BMP_temperature;BMP_pressure;BME280_temperature;BME280_humidity;BME280_pressure;Samples;Min_cycle;Max_cycle;Signal;HPM_P1;HPM_P2
2021/09/25 00:01:20;;;;;;;4.88;3.00;;;11.70;75.50;;;;;;5037578;28;20036;-77
2021/09/25 00:03:46;;;;;;;5.90;3.60;;;11.70;75.30;;;;;;5036175;28;20017;-77
2021/09/25 00:06:12;;;;;;;4.97;3.35;;;11.70;75.10;;;;;;5037457;28;20056;-77
2021/09/25 00:08:38;;;;;;;5.20;3.38;;;11.60;75.10;;;;;;5031992;28;20064;-77
2021/09/25 00:11:05;;;;;;;5.07;3.20;;;11.60;75.20;;;;;;5037019;28;20488;-77
2021/09/25 00:13:31;;;;;;;5.85;3.78;;;11.50;75.30;;;;;;5034621;28;20052;-77
2021/09/25 00:15:56;;;;;;;5.63;3.60;;;11.50;75.30;;;;;;5037146;28;20014;-77
2021/09/25 00:18:22;;;;;;;5.15;3.08;;;11.50;75.40;;;;;;5036924;28;20503;-78
2021/09/25 00:20:48;;;;;;;4.68;3.28;;;11.40;75.30;;;;;;5037269;28;20029;-78
2021/09/25 00:23:14;;;;;;;5.57;3.78;;;11.50;75.70;;;;;;5036970;28;20025;-77
2021/09/25 00:25:40;;;;;;;5.82;3.42;;;11.40;75.60;;;;;;5025557;28;20037;-77
2021/09/25 00:28:06;;;;;;;6.10;3.28;;;11.30;75.30;;;;;;5032984;28;20105;-77
2021/09/25 00:30:32;;;;;;;5.40;3.75;;;11.30;75.30;;;;;;5037323;28;20389;-77
2021/09/25 00:32:58;;;;;;;6.07;3.40;;;11.30;75.40;;;;;;5033655;28;20024;-77
2021/09/25 00:35:24;;;;;;;5.07;3.58;;;11.30;75.40;;;;;;5036400;28;20054;-77
2021/09/25 00:37:50;;;;;;;5.40;3.50;;;11.20;75.20;;;;;;5036662;28;20025;-77
2021/09/25 00:40:17;;;;;;;5.22;3.10;;;11.20;75.20;;;;;;5036067;28;20032;-77
2021/09/25 00:42:43;;;;;;;4.55;2.97;;;11.10;75.20;;;;;;5036613;28;20030;-77
2021/09/25 00:45:10;;;;;;;5.13;2.80;;;11.10;75.70;;;;;;5037171;28;20033;-77
2021/09/25 00:47:36;;;;;;;5.07;2.72;;;11.10;75.10;;;;;;5036874;28;20025;-77
2021/09/25 00:50:04;;;;;;;5.10;2.92;;;11.10;75.30;;;;;;5037048;28;20026;-77
2021/09/25 00:52:30;;;;;;;4.78;3.00;;;11.10;75.30;;;;;;5034790;28;20494;-77
2021/09/25 00:54:56;;;;;;;5.45;2.70;;;11.00;75.20;;;;;;5036283;28;20017;-77
2021/09/25 00:57:21;;;;;;;4.20;2.80;;;11.00;75.90;;;;;;5035356;28;20040;-77
2021/09/25 00:59:49;;;;;;;4.78;2.70;;;11.00;75.20;;;;;;5040755;28;20526;-77
2021/09/25 01:02:17;;;;;;;5.18;3.17;;;11.00;75.30;;;;;;5040424;28;20029;-77
2021/09/25 01:04:48;;;;;;;5.28;3.00;;;11.00;75.10;;;;;;5040539;28;20438;-77
2021/09/25 01:07:14;;;;;;;6.00;3.50;;;10.90;75.20;;;;;;5040457;28;20025;-78
2021/09/25 01:09:40;;;;;;;5.22;2.97;;;10.90;75.20;;;;;;5036148;28;20037;-78
2021/09/25 01:12:08;;;;;;;4.45;2.58;;;10.90;75.70;;;;;;5040223;28;20029;-77
2021/09/25 01:14:34;;;;;;;5.97;3.03;;;10.90;75.50;;;;;;5037083;28;20025;-77
2021/09/25 01:17:09;;;;;;;5.15;3.10;;;10.80;75.60;;;;;;5040072;28;20041;-77
2021/09/25 01:19:35;;;;;;;4.40;2.95;;;10.80;75.40;;;;;;5039190;28;20025;-77
2021/09/25 01:22:02;;;;;;;4.97;2.83;;;10.80;75.40;;;;;;5040124;28;20032;-77
2021/09/25 01:24:28;;;;;;;5.03;3.08;;;10.80;75.40;;;;;;5039403;28;20009;-78
2021/09/25 01:26:54;;;;;;;6.13;3.10;;;10.80;75.50;;;;;;5027890;28;20091;-77
2021/09/25 01:29:20;;;;;;;4.70;2.78;;;10.70;75.30;;;;;;5038704;28;20040;-78
2021/09/25 01:31:46;;;;;;;4.90;2.83;;;10.70;75.30;;;;;;5040064;28;20108;-77
2021/09/25 01:34:12;;;;;;;5.25;3.15;;;10.70;75.40;;;;;;5037442;28;20083;-77
2021/09/25 01:36:38;;;;;;;6.10;3.10;;;10.60;75.40;;;;;;5040156;28;20014;-77
2021/09/25 01:39:04;;;;;;;5.20;3.35;;;10.60;75.20;;;;;;5039627;28;20030;-77
2021/09/25 01:41:30;;;;;;;5.57;3.38;;;10.60;75.30;;;;;;5028381;28;20100;-77
2021/09/25 01:43:56;;;;;;;5.35;2.90;;;10.60;75.40;;;;;;5039736;28;20053;-77
2021/09/25 01:46:21;;;;;;;4.93;3.25;;;10.50;75.40;;;;;;5039933;28;20384;-77
2021/09/25 01:48:48;;;;;;;5.30;2.67;;;10.50;75.30;;;;;;5039723;28;20028;-77
2021/09/25 01:51:14;;;;;;;5.43;2.80;;;10.50;75.20;;;;;;5039748;28;20116;-77
2021/09/25 01:53:40;;;;;;;5.22;3.33;;;10.50;75.20;;;;;;5036986;28;20458;-77
2021/09/25 01:56:09;;;;;;;5.30;3.00;;;10.40;75.20;;;;;;5039022;28;20042;-77
2021/09/25 01:58:35;;;;;;;7.03;3.88;;;10.50;75.60;;;;;;5039455;28;20030;-77
2021/09/25 02:01:01;;;;;;;6.50;3.83;;;10.50;77.10;;;;;;5039842;28;20477;-77
2021/09/25 02:03:27;;;;;;;6.13;3.53;;;10.50;77.50;;;;;;5039697;28;20052;-77
2021/09/25 02:05:53;;;;;;;5.32;2.95;;;10.50;78.90;;;;;;5039678;28;20028;-77
2021/09/25 02:08:19;;;;;;;6.03;3.22;;;10.50;77.30;;;;;;5035407;28;20540;-77
2021/09/25 02:10:45;;;;;;;5.43;3.40;;;10.50;76.70;;;;;;5039513;28;20032;-77
2021/09/25 02:13:10;;;;;;;5.40;3.67;;;10.40;76.70;;;;;;5036619;28;20021;-78
2021/09/25 02:15:36;;;;;;;5.68;3.60;;;10.40;77.30;;;;;;5039458;28;20021;-77
2021/09/25 02:18:03;;;;;;;5.93;4.03;;;10.40;77.30;;;;;;5038713;28;20052;-77
2021/09/25 02:20:28;;;;;;;7.50;4.18;;;10.40;78.00;;;;;;5039234;28;20025;-77
2021/09/25 02:22:54;;;;;;;7.05;4.20;;;10.50;79.50;;;;;;5039036;28;20025;-77
2021/09/25 02:25:20;;;;;;;5.28;3.50;;;10.40;78.90;;;;;;5031295;28;20089;-77
2021/09/25 02:27:49;;;;;;;6.85;4.03;;;10.40;79.30;;;;;;5033440;28;20406;-77
2021/09/25 02:30:17;;;;;;;6.30;4.07;;;10.50;79.20;;;;;;5038985;28;20048;-77
2021/09/25 02:32:44;;;;;;;5.70;3.88;;;10.40;78.90;;;;;;5036627;28;20028;-77
2021/09/25 02:35:12;;;;;;;5.28;3.53;;;10.40;78.80;;;;;;5036959;28;20046;-77
2021/09/25 02:37:37;;;;;;;5.20;3.60;;;10.40;77.90;;;;;;5038608;28;20037;-77
2021/09/25 02:40:04;;;;;;;4.90;3.50;;;10.40;78.00;;;;;;5037804;28;20025;-77
2021/09/25 02:42:30;;;;;;;5.47;3.67;;;10.40;78.00;;;;;;5038307;28;20026;-77
2021/09/25 02:44:56;;;;;;;4.90;3.20;;;10.30;77.80;;;;;;5038893;28;20025;-77
2021/09/25 02:47:22;;;;;;;4.93;3.05;;;10.40;77.20;;;;;;5038607;28;20040;-77
2021/09/25 02:49:48;;;;;;;4.45;3.17;;;10.30;76.90;;;;;;5038497;28;20022;-78
2021/09/25 02:52:14;;;;;;;5.47;3.20;;;10.30;76.90;;;;;;5038288;28;20025;-78
2021/09/25 02:54:39;;;;;;;4.70;3.20;;;10.30;76.70;;;;;;5036165;28;20017;-78
2021/09/25 02:57:05;;;;;;;5.18;3.28;;;10.30;76.80;;;;;;5037916;28;20026;-77
2021/09/25 02:59:31;;;;;;;4.30;3.22;;;10.20;76.70;;;;;;5038378;28;20028;-77
2021/09/25 03:01:57;;;;;;;4.30;3.00;;;10.20;76.70;;;;;;5038410;28;20037;-77
2021/09/25 03:04:23;;;;;;;5.20;3.50;;;10.20;76.70;;;;;;5038489;28;20017;-77
2021/09/25 03:06:48;;;;;;;5.88;3.28;;;10.10;77.00;;;;;;5038183;28;20496;-77
2021/09/25 03:09:15;;;;;;;6.43;3.40;;;10.10;77.00;;;;;;5034256;28;20416;-77
2021/09/25 03:11:41;;;;;;;5.60;3.22;;;10.10;76.80;;;;;;5037753;28;20017;-77
2021/09/25 03:14:07;;;;;;;6.35;3.53;;;10.10;76.90;;;;;;5035549;28;20056;-77
2021/09/25 03:16:32;;;;;;;5.75;3.60;;;10.00;77.10;;;;;;5036463;28;20018;-77
2021/09/25 03:18:58;;;;;;;5.55;3.35;;;10.00;76.90;;;;;;5038421;28;20573;-77
2021/09/25 03:21:24;;;;;;;6.43;3.40;;;10.00;76.80;;;;;;5037406;28;20084;-77
2021/09/25 03:23:50;;;;;;;5.70;3.55;;;10.00;76.80;;;;;;5036669;28;20033;-77
2021/09/25 03:26:16;;;;;;;5.53;3.60;;;10.00;76.80;;;;;;5024256;28;20074;-77
2021/09/25 03:28:42;;;;;;;5.47;3.72;;;9.90;76.70;;;;;;5038112;28;20064;-77
2021/09/25 03:31:08;;;;;;;7.43;3.42;;;9.90;76.50;;;;;;5037616;28;20025;-77
2021/09/25 03:33:34;;;;;;;5.47;3.58;;;9.90;76.50;;;;;;5035281;28;20071;-77
2021/09/25 03:36:00;;;;;;;6.72;3.28;;;9.90;76.70;;;;;;5037164;28;20124;-77
2021/09/25 03:38:27;;;;;;;7.00;3.70;;;9.80;76.70;;;;;;5037728;28;20018;-77
2021/09/25 03:40:54;;;;;;;5.10;3.22;;;9.90;76.80;;;;;;5025533;28;20025;-77
2021/09/25 03:43:20;;;;;;;7.45;3.92;;;9.80;76.80;;;;;;5037716;28;20029;-77
2021/09/25 03:45:46;;;;;;;5.22;3.20;;;9.80;76.70;;;;;;5037665;28;20514;-77
2021/09/25 03:48:13;;;;;;;6.55;3.65;;;9.80;76.60;;;;;;5037815;28;20041;-77
2021/09/25 03:50:39;;;;;;;5.60;3.35;;;9.80;76.60;;;;;;5037319;28;20108;-77
2021/09/25 03:53:05;;;;;;;5.30;3.22;;;9.70;76.50;;;;;;5035534;28;20503;-77
2021/09/25 03:55:31;;;;;;;4.68;3.30;;;9.70;76.70;;;;;;5036951;28;20013;-77
2021/09/25 03:57:57;;;;;;;5.53;3.30;;;9.70;76.50;;;;;;5036803;28;20080;-77
2021/09/25 04:00:24;;;;;;;5.80;3.65;;;9.70;76.70;;;;;;5037501;28;20048;-77
2021/09/25 04:02:51;;;;;;;8.00;3.88;;;9.70;78.10;;;;;;5037452;28;20076;-77
2021/09/25 04:05:18;;;;;;;5.88;3.75;;;9.70;78.00;;;;;;5037329;28;20052;-77
2021/09/25 04:07:44;;;;;;;7.40;4.57;;;9.60;77.70;;;;;;5034989;28;20026;-77
2021/09/25 04:10:11;;;;;;;6.60;4.70;;;9.70;78.50;;;;;;5034371;28;20025;-77
2021/09/25 04:12:37;;;;;;;7.13;4.82;;;9.70;79.50;;;;;;5034755;28;20624;-77
2021/09/25 04:15:04;;;;;;;6.72;4.05;;;9.70;78.60;;;;;;5036508;28;20018;-77
2021/09/25 04:17:30;;;;;;;6.30;3.83;;;9.60;77.90;;;;;;5036070;28;20021;-77
2021/09/25 04:19:56;;;;;;;5.35;3.30;;;9.60;77.60;;;;;;5037191;28;20017;-77
2021/09/25 04:22:21;;;;;;;6.35;4.40;;;9.60;78.10;;;;;;5036168;28;20085;-77
2021/09/25 04:24:47;;;;;;;5.80;3.50;;;9.60;78.70;;;;;;5033741;28;20107;-77
2021/09/25 04:27:13;;;;;;;6.05;3.95;;;9.60;78.80;;;;;;5027352;28;20029;-75
2021/09/25 04:29:39;;;;;;;5.45;3.60;;;9.60;78.70;;;;;;5036982;28;20495;-76
2021/09/25 04:32:05;;;;;;;5.45;3.47;;;9.60;78.10;;;;;;5037056;28;20029;-75
2021/09/25 04:34:32;;;;;;;5.25;3.60;;;9.60;78.00;;;;;;5037946;28;20037;-76
2021/09/25 04:36:58;;;;;;;4.85;3.30;;;9.60;78.30;;;;;;5040726;28;20496;-75
2021/09/25 04:39:27;;;;;;;4.80;2.92;;;9.50;77.80;;;;;;5039881;28;20100;-75
2021/09/25 04:41:53;;;;;;;6.68;3.35;;;9.50;77.50;;;;;;5039560;28;20025;-76
2021/09/25 04:44:19;;;;;;;4.78;3.15;;;9.50;77.40;;;;;;5040952;28;20024;-76
2021/09/25 04:46:46;;;;;;;5.30;2.97;;;9.50;77.50;;;;;;5041188;28;20480;-76
2021/09/25 04:49:12;;;;;;;5.50;3.42;;;9.50;77.50;;;;;;5040818;28;20036;-76
2021/09/25 04:51:38;;;;;;;5.03;3.28;;;9.50;77.50;;;;;;5040811;28;20545;-76
2021/09/25 04:54:04;;;;;;;4.68;2.80;;;9.40;77.50;;;;;;5038054;28;20534;-76
2021/09/25 04:56:40;;;;;;;5.50;2.90;;;9.40;77.30;;;;;;5039881;28;20030;-77
2021/09/25 04:59:06;;;;;;;5.72;3.35;;;9.40;77.10;;;;;;5027736;28;20495;-77
2021/09/25 05:01:32;;;;;;;12.00;3.58;;;9.40;77.50;;;;;;5040739;28;20032;-77
2021/09/25 05:04:01;;;;;;;4.45;3.22;;;9.40;77.60;;;;;;5038879;28;20504;-77
2021/09/25 05:06:28;;;;;;;5.53;3.03;;;9.30;77.60;;;;;;5040001;28;20035;-77
2021/09/25 05:08:54;;;;;;;4.88;3.22;;;9.40;77.40;;;;;;5034510;28;20041;-77
2021/09/25 05:11:20;;;;;;;6.20;3.75;;;9.30;77.10;;;;;;5038773;28;20444;-78
2021/09/25 05:13:46;;;;;;;5.13;2.90;;;9.30;78.50;;;;;;5037871;28;20446;-77
2021/09/25 05:16:12;;;;;;;5.45;3.40;;;9.30;77.50;;;;;;5040129;28;20021;-77
2021/09/25 05:18:38;;;;;;;4.95;3.00;;;9.30;77.40;;;;;;5040337;28;20465;-77
2021/09/25 05:21:03;;;;;;;4.90;3.15;;;9.30;77.00;;;;;;5040434;28;20029;-77
2021/09/25 05:23:29;;;;;;;6.35;2.65;;;9.30;76.90;;;;;;5040230;28;20025;-77
2021/09/25 05:25:55;;;;;;;4.85;2.92;;;9.30;76.70;;;;;;5027735;28;20033;-77
2021/09/25 05:28:21;;;;;;;5.03;2.95;;;9.30;76.70;;;;;;5038360;28;20496;-77
2021/09/25 05:30:47;;;;;;;4.90;3.30;;;9.30;77.00;;;;;;5040240;28;20033;-77
2021/09/25 05:33:12;;;;;;;4.72;2.80;;;9.30;77.10;;;;;;5036659;28;20022;-76
2021/09/25 05:35:38;;;;;;;4.65;2.92;;;9.30;77.20;;;;;;5039341;28;20056;-76
2021/09/25 05:38:04;;;;;;;3.97;2.67;;;9.30;77.20;;;;;;5039777;28;20518;-76
2021/09/25 05:40:30;;;;;;;4.65;3.00;;;9.30;77.00;;;;;;5039026;28;20033;-76
2021/09/25 05:42:56;;;;;;;4.30;2.60;;;9.20;76.90;;;;;;5039185;28;20034;-76
2021/09/25 05:45:22;;;;;;;5.32;3.20;;;9.30;76.90;;;;;;5039791;28;20071;-77
2021/09/25 05:47:47;;;;;;;4.68;3.20;;;9.30;77.00;;;;;;5026654;28;20033;-76
2021/09/25 05:50:14;;;;;;;4.30;3.20;;;9.30;76.90;;;;;;5039845;28;20028;-77
2021/09/25 05:52:40;;;;;;;4.80;3.05;;;9.30;77.20;;;;;;5024596;28;20036;-76
2021/09/25 05:55:08;;;;;;;6.28;3.38;;;9.20;77.20;;;;;;5039308;28;20055;-77
2021/09/25 05:57:34;;;;;;;5.07;3.08;;;9.20;77.10;;;;;;5037681;28;20026;-76
2021/09/25 06:00:00;;;;;;;4.80;3.30;;;9.20;77.00;;;;;;5038478;28;20018;-77
2021/09/25 06:02:26;;;;;;;5.18;3.15;;;9.20;77.00;;;;;;5039858;28;20033;-76
2021/09/25 06:04:52;;;;;;;4.78;3.15;;;9.20;77.20;;;;;;5039561;28;20108;-77
2021/09/25 06:07:19;;;;;;;5.43;3.30;;;9.20;77.30;;;;;;5038076;28;20052;-77
2021/09/25 06:09:44;;;;;;;5.18;3.00;;;9.20;77.60;;;;;;5034321;28;20053;-77
2021/09/25 06:12:10;;;;;;;4.97;3.35;;;9.20;77.60;;;;;;5039098;28;20064;-77
2021/09/25 06:14:37;;;;;;;5.30;3.15;;;9.20;77.40;;;;;;5036551;28;20021;-76
2021/09/25 06:17:04;;;;;;;5.05;3.33;;;9.20;77.30;;;;;;5039036;28;20025;-76
2021/09/25 06:19:30;;;;;;;7.15;3.78;;;9.20;78.20;;;;;;5039062;28;20454;-76
2021/09/25 06:21:56;;;;;;;5.35;3.55;;;9.20;78.90;;;;;;5039259;28;20099;-76
2021/09/25 06:24:22;;;;;;;5.80;3.25;;;9.20;78.10;;;;;;5038969;28;20029;-76
2021/09/25 06:26:48;;;;;;;4.63;3.25;;;9.20;77.90;;;;;;5025544;28;20032;-76
2021/09/25 06:29:14;;;;;;;6.22;3.28;;;9.20;77.70;;;;;;5039130;28;20064;-76
2021/09/25 06:31:40;;;;;;;4.70;3.03;;;9.20;77.50;;;;;;5038933;28;20030;-77
2021/09/25 06:34:06;;;;;;;4.75;2.85;;;9.20;77.50;;;;;;5036073;28;20060;-76
2021/09/25 06:36:34;;;;;;;5.40;2.90;;;9.30;77.60;;;;;;5031014;28;20077;-76
2021/09/25 06:39:01;;;;;;;5.93;3.13;;;9.30;77.60;;;;;;5038991;28;20060;-76
2021/09/25 06:41:27;;;;;;;5.88;3.38;;;9.40;77.60;;;;;;5027055;28;20029;-76
2021/09/25 06:43:53;;;;;;;5.07;3.20;;;9.40;77.70;;;;;;5038554;28;20395;-76
2021/09/25 06:46:18;;;;;;;5.03;3.10;;;9.40;77.70;;;;;;5038988;28;20029;-77
2021/09/25 06:48:47;;;;;;;4.78;3.20;;;9.50;77.80;;;;;;5037299;28;20092;-76
2021/09/25 06:51:15;;;;;;;6.30;3.42;;;9.50;77.80;;;;;;5038469;28;20464;-76
2021/09/25 06:53:41;;;;;;;5.65;3.60;;;9.50;78.10;;;;;;5035994;28;20495;-76
2021/09/25 06:56:07;;;;;;;5.63;3.38;;;9.60;78.20;;;;;;5037228;28;20022;-77
2021/09/25 06:58:33;;;;;;;5.90;3.33;;;9.70;78.00;;;;;;5038355;28;20083;-76
2021/09/25 07:00:59;;;;;;;6.22;3.50;;;9.70;77.70;;;;;;5038674;28;20032;-78
2021/09/25 07:03:25;;;;;;;5.07;3.33;;;9.70;77.50;;;;;;5038271;28;20029;-76
2021/09/25 07:05:50;;;;;;;4.35;2.95;;;9.80;77.40;;;;;;5038466;28;20024;-76
2021/09/25 07:08:16;;;;;;;5.75;3.40;;;9.80;77.60;;;;;;5033728;28;20029;-78
2021/09/25 07:10:42;;;;;;;5.20;3.30;;;9.80;77.50;;;;;;5037884;28;20032;-76
2021/09/25 07:13:08;;;;;;;5.78;3.28;;;9.90;77.60;;;;;;5035789;28;20025;-79
2021/09/25 07:15:34;;;;;;;5.55;3.30;;;9.90;77.80;;;;;;5036819;28;20056;-80
2021/09/25 07:18:00;;;;;;;5.10;2.95;;;10.00;77.80;;;;;;5037729;28;20030;-81
2021/09/25 07:20:26;;;;;;;5.15;3.10;;;10.10;77.90;;;;;;5038319;28;20021;-76
2021/09/25 07:22:52;;;;;;;5.10;3.50;;;10.20;77.90;;;;;;5037900;28;20034;-78
2021/09/25 07:25:22;;;;;;;4.65;3.30;;;10.30;78.00;;;;;;5030608;28;20022;-79
2021/09/25 07:27:49;;;;;;;5.13;3.40;;;10.40;78.00;;;;;;5032444;28;20025;-81
2021/09/25 07:30:15;;;;;;;5.45;3.35;;;10.50;78.00;;;;;;5037959;28;20022;-82
2021/09/25 07:32:41;;;;;;;5.20;3.60;;;10.60;78.00;;;;;;5035430;28;20037;-78
2021/09/25 07:35:08;;;;;;;5.22;3.38;;;10.70;77.90;;;;;;5037202;28;20171;-78
2021/09/25 07:37:44;;;;;;;4.80;3.30;;;10.80;77.90;;;;;;5036949;28;20028;-78
2021/09/25 07:40:12;;;;;;;4.90;2.97;;;10.90;77.90;;;;;;5036791;28;20480;-75
2021/09/25 07:42:38;;;;;;;4.97;3.40;;;11.00;77.90;;;;;;5037206;28;20028;-79
2021/09/25 07:45:08;;;;;;;5.10;3.53;;;11.20;78.00;;;;;;5037781;28;20034;-80
2021/09/25 07:47:36;;;;;;;5.78;3.75;;;11.30;78.00;;;;;;5037472;28;20056;-74
2021/09/25 07:50:07;;;;;;;5.95;3.80;;;11.40;78.30;;;;;;5037754;28;20089;-83
2021/09/25 07:52:33;;;;;;;7.93;4.00;;;11.60;78.30;;;;;;5034869;28;20064;-80
2021/09/25 07:54:59;;;;;;;7.35;4.47;;;11.70;78.60;;;;;;5037042;28;20451;-91
2021/09/25 07:57:28;;;;;;;5.85;3.95;;;11.80;78.80;;;;;;5036682;28;20030;-88
2021/09/25 07:59:54;;;;;;;6.15;3.92;;;12.00;79.00;;;;;;5035677;28;20021;-76
2021/09/25 08:02:20;;;;;;;7.00;4.70;;;12.20;79.20;;;;;;5035575;28;20057;-85
2021/09/25 08:04:45;;;;;;;7.90;4.57;;;12.30;79.30;;;;;;5035674;28;20036;-78
2021/09/25 08:07:11;;;;;;;12.32;8.70;;;12.40;79.50;;;;;;5036822;28;20029;-79
2021/09/25 08:09:37;;;;;;;16.80;12.23;;;12.70;79.70;;;;;;5032485;28;20781;-79
2021/09/25 08:12:03;;;;;;;13.50;8.77;;;12.80;79.80;;;;;;5020126;28;21073;-76
2021/09/25 08:14:29;;;;;;;11.00;7.78;;;13.10;80.00;;;;;;5027025;28;20022;-76
2021/09/25 08:16:55;;;;;;;10.85;7.32;;;13.30;80.20;;;;;;5033723;28;20028;-77
2021/09/25 08:19:30;;;;;;;12.23;8.02;;;13.60;80.70;;;;;;5036402;28;20018;-83
2021/09/25 08:21:56;;;;;;;13.02;8.40;;;14.10;81.50;;;;;;5024041;28;20030;-81
2021/09/25 08:24:22;;;;;;;12.68;8.52;;;14.90;81.90;;;;;;5032111;28;20365;-80
2021/09/25 08:26:48;;;;;;;11.07;8.75;;;15.60;81.30;;;;;;5023716;28;20034;-79
2021/09/25 08:29:14;;;;;;;12.85;9.95;;;16.30;80.50;;;;;;5037021;28;20028;-78
2021/09/25 08:31:40;;;;;;;12.02;9.43;;;16.90;79.30;;;;;;5035955;28;20079;-78
2021/09/25 08:34:06;;;;;;;11.38;8.90;;;17.30;78.40;;;;;;5036658;28;20416;-76
2021/09/25 08:36:31;;;;;;;13.20;9.95;;;17.50;77.70;;;;;;5023871;28;20033;-73
2021/09/25 08:38:57;;;;;;;13.65;9.70;;;17.70;77.10;;;;;;5036802;28;20026;-77
2021/09/25 08:41:24;;;;;;;12.93;9.65;;;17.70;76.90;;;;;;5034361;28;20469;-78
2021/09/25 08:43:51;;;;;;;13.95;10.57;;;17.70;76.80;;;;;;5034258;28;20031;-77
2021/09/25 08:46:17;;;;;;;16.13;11.63;;;17.80;76.90;;;;;;5035098;28;20488;-77
2021/09/25 08:48:43;;;;;;;14.43;10.70;;;18.00;77.00;;;;;;5036098;28;20039;-77
2021/09/25 08:51:09;;;;;;;13.48;9.68;;;18.20;76.90;;;;;;5036011;28;20033;-77
2021/09/25 08:53:36;;;;;;;13.75;10.68;;;18.30;76.40;;;;;;5035334;28;20071;-77
2021/09/25 08:56:03;;;;;;;16.05;11.68;;;18.40;76.10;;;;;;5036185;28;20049;-77
2021/09/25 08:58:28;;;;;;;12.57;9.23;;;18.40;76.00;;;;;;5035222;28;20029;-74
2021/09/25 09:00:55;;;;;;;14.00;10.45;;;18.50;76.10;;;;;;5036620;28;20030;-75
2021/09/25 09:03:29;;;;;;;15.93;11.13;;;18.80;76.10;;;;;;5035415;28;20017;-76
2021/09/25 09:06:10;;;;;;;17.95;11.02;;;19.20;75.90;;;;;;5036883;28;20017;-75
2021/09/25 09:08:37;;;;;;;13.57;9.70;;;19.70;75.60;;;;;;5032500;28;20013;-77
2021/09/25 09:11:06;;;;;;;13.90;10.02;;;20.20;74.50;;;;;;5036461;28;20476;-77
2021/09/25 09:13:36;;;;;;;11.60;9.75;;;20.50;73.80;;;;;;5036558;28;20088;-75
2021/09/25 09:16:04;;;;;;;13.30;9.73;;;20.50;72.40;;;;;;5036638;28;20033;-75
2021/09/25 09:18:31;;;;;;;13.32;9.48;;;20.50;72.50;;;;;;5037436;28;20040;-76
2021/09/25 09:21:25;;;;;;;14.40;11.13;;;20.30;71.80;;;;;;5040208;28;20080;-77
2021/09/25 09:24:06;;;;;;;14.48;10.07;;;20.10;71.30;;;;;;5040365;28;20052;-79
2021/09/25 09:26:35;;;;;;;14.27;10.35;;;19.90;71.00;;;;;;5023358;28;20026;-78
2021/09/25 09:29:04;;;;;;;14.13;10.45;;;19.70;71.20;;;;;;5038823;28;20021;-78
2021/09/25 09:31:31;;;;;;;15.52;11.48;;;19.60;71.60;;;;;;5038817;28;20392;-77
2021/09/25 09:33:59;;;;;;;11.60;9.20;;;19.40;71.00;;;;;;5038418;28;20041;-81
2021/09/25 09:36:32;;;;;;;26.60;19.23;;;19.40;71.50;;;;;;5039856;28;20468;-80
2021/09/25 09:39:08;;;;;;;18.58;14.65;;;19.20;71.60;;;;;;5039917;28;20020;-88
2021/09/25 09:42:39;;;;;;;14.45;11.27;;;19.20;71.50;;;;;;5027607;28;20068;-82
2021/09/25 09:45:05;;;;;;;16.52;10.65;;;19.10;71.40;;;;;;4902399;29;20040;-83
2021/09/25 09:47:41;;;;;;;12.48;10.25;;;19.20;72.10;;;;;;4956122;28;20048;-80
2021/09/25 09:50:08;;;;;;;16.25;11.77;;;19.30;71.90;;;;;;5039860;28;20026;-81
2021/09/25 09:52:34;;;;;;;15.60;12.00;;;19.30;71.70;;;;;;5039494;28;20025;-80
2021/09/25 09:55:01;;;;;;;15.20;10.93;;;19.30;71.50;;;;;;5039623;28;20392;-81
2021/09/25 09:57:28;;;;;;;13.75;10.02;;;19.40;71.40;;;;;;5039270;28;20021;-81
2021/09/25 09:59:54;;;;;;;13.88;11.32;;;19.40;71.40;;;;;;5039561;28;20029;-82
2021/09/25 10:02:20;;;;;;;14.98;11.35;;;19.40;70.70;;;;;;5039698;28;20079;-79
2021/09/25 10:04:47;;;;;;;15.20;11.85;;;19.40;70.50;;;;;;5039644;28;20029;-81
2021/09/25 10:07:15;;;;;;;15.90;12.40;;;19.30;70.40;;;;;;5039497;28;20033;-81
2021/09/25 10:09:41;;;;;;;19.00;14.95;;;19.20;70.20;;;;;;5034818;28;20029;-81
2021/09/25 10:12:10;;;;;;;16.40;12.45;;;19.10;70.40;;;;;;5039085;28;20438;-82
2021/09/25 10:14:39;;;;;;;23.58;17.63;;;19.10;70.60;;;;;;5038481;28;20026;-82
2021/09/25 10:17:09;;;;;;;17.95;13.95;;;19.10;70.80;;;;;;5040555;28;20026;-80
2021/09/25 10:19:36;;;;;;;14.38;11.95;;;19.10;71.00;;;;;;5037594;28;20021;-83
2021/09/25 10:22:13;;;;;;;20.90;15.48;;;19.10;71.10;;;;;;5038945;28;20033;-83
2021/09/25 10:25:00;;;;;;;19.73;14.18;;;19.10;71.20;;;;;;5036483;28;20036;-80
2021/09/25 10:27:42;;;;;;;20.17;13.75;;;19.10;71.20;;;;;;5030664;28;20021;-91
2021/09/25 10:30:10;;;;;;;15.27;11.65;;;19.20;71.10;;;;;;5024846;28;20026;-74
2021/09/25 10:32:53;;;;;;;16.08;11.68;;;19.20;71.10;;;;;;5038711;28;20022;-73
2021/09/25 10:35:25;;;;;;;15.57;11.05;;;19.30;71.40;;;;;;5037364;28;20053;-75
2021/09/25 10:38:02;;;;;;;13.63;11.10;;;19.40;71.60;;;;;;5038950;28;20036;-76
2021/09/25 10:40:34;;;;;;;16.42;11.25;;;19.60;71.60;;;;;;5027742;28;20029;-82
2021/09/25 10:43:27;;;;;;;14.23;11.60;;;19.70;71.70;;;;;;5025874;28;20040;-76
2021/09/25 10:45:58;;;;;;;15.02;11.07;;;19.90;71.50;;;;;;5037526;28;20034;-78
2021/09/25 10:48:23;;;;;;;14.43;10.60;;;20.10;71.10;;;;;;5038478;28;20029;-77
2021/09/25 10:50:59;;;;;;;14.48;10.88;;;20.20;70.80;;;;;;5037183;28;20044;-76
2021/09/25 10:53:32;;;;;;;15.38;11.07;;;20.30;70.60;;;;;;5038598;28;20437;-80
2021/09/25 10:56:02;;;;;;;12.90;10.35;;;20.40;70.50;;;;;;5025916;28;20026;-78
2021/09/25 10:58:32;;;;;;;15.95;12.55;;;20.40;70.60;;;;;;5038633;28;20033;-81
2021/09/25 11:01:02;;;;;;;14.93;12.02;;;20.40;70.30;;;;;;5038547;28;20029;-79
2021/09/25 11:03:58;;;;;;;21.60;16.65;;;20.40;70.40;;;;;;5036808;28;20029;-76
2021/09/25 11:06:46;;;;;;;25.52;18.13;;;20.40;70.10;;;;;;5038077;28;20022;-79
2021/09/25 11:09:27;;;;;;;32.47;21.60;;;20.40;69.90;;;;;;5033998;28;20026;-78
2021/09/25 11:11:58;;;;;;;28.92;19.75;;;20.40;69.90;;;;;;5037808;28;20520;-82
2021/09/25 11:14:30;;;;;;;23.63;16.30;;;20.30;70.00;;;;;;5036951;28;20517;-77
2021/09/25 11:16:58;;;;;;;23.27;16.23;;;20.20;70.00;;;;;;5025772;28;20029;-74
2021/09/25 11:19:27;;;;;;;53.50;36.08;;;20.20;70.10;;;;;;5037855;28;20036;-76
2021/09/25 11:22:14;;;;;;;49.90;33.65;;;20.20;70.30;;;;;;5037842;28;20029;-77
2021/09/25 11:24:56;;;;;;;62.50;54.95;;;20.10;70.60;;;;;;5035600;28;20104;-77
2021/09/25 11:27:23;;;;;;;86.63;77.18;;;20.10;70.70;;;;;;5029282;28;20064;-77
2021/09/25 11:30:08;;;;;;;70.43;62.78;;;20.30;70.60;;;;;;5037839;28;20163;-77
2021/09/25 11:32:56;;;;;;;51.53;45.85;;;20.30;70.90;;;;;;5037763;28;20087;-82
2021/09/25 11:35:29;;;;;;;49.65;41.25;;;20.40;70.80;;;;;;5037274;28;20048;-77
2021/09/25 11:38:03;;;;;;;53.75;47.42;;;20.40;70.80;;;;;;5037714;28;20104;-77
2021/09/25 11:40:33;;;;;;;90.50;81.43;;;20.40;70.60;;;;;;5035176;28;20032;-76
2021/09/25 11:43:12;;;;;;;284.65;258.52;;;20.40;70.30;;;;;;5024565;28;20036;-76
2021/09/25 11:45:40;;;;;;;321.98;289.30;;;20.40;70.30;;;;;;5037565;28;20025;-75
2021/09/25 11:48:08;;;;;;;176.77;157.63;;;20.30;70.10;;;;;;5037989;28;20056;-75
2021/09/25 11:50:36;;;;;;;110.20;98.43;;;20.30;70.10;;;;;;5037381;28;20022;-74
2021/09/25 11:53:09;;;;;;;46.28;40.67;;;20.30;70.20;;;;;;5037525;28;20366;-78
2021/09/25 11:55:36;;;;;;;;;;;20.20;70.10;;;;;;5036525;28;20025;-77
2021/09/25 11:58:07;;;;;;;21.52;15.43;;;20.20;70.20;;;;;;5037813;28;19951;-78
2021/09/25 12:00:39;;;;;;;17.88;12.35;;;20.10;70.20;;;;;;5037498;28;20022;-78
2021/09/25 12:03:09;;;;;;;16.30;12.27;;;20.10;70.30;;;;;;5037454;28;20392;-78
2021/09/25 12:05:43;;;;;;;17.05;11.30;;;20.10;70.40;;;;;;5024262;28;20039;-77
2021/09/25 12:08:22;;;;;;;16.60;11.50;;;20.10;70.50;;;;;;5032816;28;20040;-78
2021/09/25 12:10:53;;;;;;;15.60;10.82;;;20.10;70.50;;;;;;5037175;28;20067;-76
2021/09/25 12:13:27;;;;;;;12.60;9.77;;;20.10;70.50;;;;;;5037281;28;20061;-76
2021/09/25 12:15:59;;;;;;;14.90;9.95;;;20.10;70.70;;;;;;5037388;28;20021;-75
2021/09/25 12:18:51;;;;;;;14.70;10.45;;;20.10;70.80;;;;;;5037307;28;20025;-75
2021/09/25 12:21:20;;;;;;;15.52;10.68;;;20.10;70.90;;;;;;5036169;28;20034;-73
2021/09/25 12:23:56;;;;;;;15.13;10.23;;;20.20;70.90;;;;;;5037152;28;20033;-74
2021/09/25 12:26:28;;;;;;;14.63;10.82;;;20.20;70.90;;;;;;5023619;28;20087;-72
2021/09/25 12:29:00;;;;;;;13.68;10.98;;;20.10;70.80;;;;;;5037278;28;20496;-71
2021/09/25 12:31:27;;;;;;;14.07;10.20;;;20.20;70.90;;;;;;5036983;28;20474;-73
2021/09/25 12:34:02;;;;;;;16.33;11.52;;;20.20;71.00;;;;;;5037167;28;20450;-72
2021/09/25 12:36:33;;;;;;;13.57;9.75;;;20.20;71.60;;;;;;5036824;28;20046;-72
2021/09/25 12:39:07;;;;;;;16.00;11.77;;;20.20;70.90;;;;;;5037183;28;20109;-77
2021/09/25 12:41:35;;;;;;;16.17;11.23;;;20.20;71.00;;;;;;5024191;28;20052;-73
2021/09/25 12:44:04;;;;;;;13.23;10.18;;;20.20;71.00;;;;;;5036935;28;20029;-72
2021/09/25 12:46:35;;;;;;;12.10;9.52;;;20.30;71.00;;;;;;5036989;28;20030;-77
2021/09/25 12:49:09;;;;;;;14.15;10.00;;;20.30;71.00;;;;;;5036919;28;20026;-79